Time;durP1;ratioP1;P1;durP2;ratioP2;P2;SDS_P1;SDS_P2;PMS_P1;PMS_P2;Temp;Humidity;BMP_temperature;BMP_pressure;BME280_temperature;BME280_humidity;BME280_pressure;Samples;Min_cycle;Max_cycle;Signal;HPM_P1;HPM_P2
2022/06/01 00:01:20;;;;;;;2.37;1.50;;;12.10;99.90;;;;;;5040521;28;20193;-86
2022/06/01 00:03:48;;;;;;;1.37;1.27;;;;;;;;;;5038491;28;20182;-86
2022/06/01 00:06:14;;;;;;;3.13;1.83;;;;;;;;;;5038617;28;20197;-86
2022/06/01 00:08:40;;;;;;;1.40;1.23;;;;;;;;;;5040111;28;20170;-86
2022/06/01 00:11:08;;;;;;;1.40;1.30;;;11.90;99.90;;;;;;5038753;28;20183;-86
2022/06/01 00:13:34;;;;;;;1.97;1.20;;;;;;;;;;5040344;28;20178;-86
2022/06/01 00:16:01;;;;;;;1.07;1.00;;;;;;;;;;5038682;28;20177;-86
2022/06/01 00:18:27;;;;;;;1.87;1.40;;;;;;;;;;5038439;28;20178;-86
2022/06/01 00:20:53;;;;;;;4.63;2.00;;;;;;;;;;5039737;28;20181;-86
2022/06/01 00:23:20;;;;;;;1.93;1.40;;;;;;;;;;5038933;28;20185;-86
2022/06/01 00:25:46;;;;;;;1.50;1.40;;;;;;;;;;5038757;28;20232;-86
2022/06/01 00:28:12;;;;;;;1.73;1.27;;;;;;;;;;5038709;28;20607;-86
2022/06/01 00:30:39;;;;;;;1.63;1.20;;;;;;;;;;5037987;28;20521;-86
2022/06/01 00:33:05;;;;;;;2.40;1.47;;;;;;;;;;5039338;28;20178;-86
2022/06/01 00:35:31;;;;;;;1.30;1.20;;;11.60;99.90;;;;;;5038571;28;20236;-86
2022/06/01 00:37:57;;;;;;;1.57;1.47;;;;;;;;;;5039378;28;20195;-86
2022/06/01 00:40:26;;;;;;;1.90;1.57;;;11.50;99.90;;;;;;5039141;28;20568;-86
2022/06/01 00:42:57;;;;;;;3.00;1.60;;;11.50;99.90;;;;;;5039684;28;20234;-86
2022/06/01 00:45:25;;;;;;;2.20;1.80;;;11.50;99.90;;;;;;5039378;28;20185;-86
2022/06/01 00:47:52;;;;;;;2.07;1.63;;;11.50;99.90;;;;;;5053887;28;20205;-85
2022/06/01 00:50:39;;;;;;;1.63;1.53;;;11.50;99.90;;;;;;5038447;28;20178;-86
2022/06/01 00:53:10;;;;;;;1.93;1.57;;;11.40;99.90;;;;;;5035951;28;20206;-86
2022/06/01 00:55:42;;;;;;;1.70;1.60;;;11.50;99.90;;;;;;5036483;28;20198;-86
2022/06/01 00:58:14;;;;;;;1.97;1.60;;;11.70;99.90;;;;;;5035573;28;20233;-86
2022/06/01 01:00:42;;;;;;;2.33;1.60;;;11.50;99.90;;;;;;5036050;28;20187;-86
2022/06/01 01:03:10;;;;;;;2.30;1.60;;;11.60;99.90;;;;;;5037096;28;20193;-86
2022/06/01 01:05:50;;;;;;;2.73;2.17;;;11.60;99.90;;;;;;5036434;28;20178;-86
2022/06/01 01:08:16;;;;;;;1.73;1.60;;;11.70;99.90;;;;;;5035105;28;20221;-86
2022/06/01 01:10:42;;;;;;;2.70;2.13;;;11.70;99.90;;;;;;5034297;28;20632;-86
2022/06/01 01:13:12;;;;;;;2.83;1.97;;;11.60;99.90;;;;;;5034026;28;20210;-87
2022/06/01 01:15:52;;;;;;;2.33;2.13;;;11.70;99.90;;;;;;5033974;28;20221;-87
2022/06/01 01:18:21;;;;;;;1.90;1.80;;;11.80;99.90;;;;;;5037457;28;20194;-86
2022/06/01 01:20:50;;;;;;;2.57;2.37;;;11.70;99.90;;;;;;5035369;28;20178;-86
2022/06/01 01:23:17;;;;;;;2.77;1.90;;;11.70;99.90;;;;;;5036054;28;20189;-87
2022/06/01 01:25:42;;;;;;;2.80;2.03;;;11.70;99.90;;;;;;5036100;28;20189;-86
2022/06/01 01:28:09;;;;;;;2.83;1.77;;;11.80;99.90;;;;;;5034943;28;20198;-86
2022/06/01 01:30:38;;;;;;;3.40;1.90;;;;;;;;;;5036920;28;20267;-86
2022/06/01 01:33:08;;;;;;;3.87;1.70;;;11.80;99.90;;;;;;5034805;28;20178;-86
2022/06/01 01:35:35;;;;;;;3.10;1.73;;;11.90;99.90;;;;;;5034854;28;20209;-86
2022/06/01 01:38:06;;;;;;;1.90;1.70;;;11.90;99.90;;;;;;5034589;28;20193;-86
2022/06/01 01:40:32;;;;;;;2.73;1.90;;;;;;;;;;5036239;28;20150;-86
2022/06/01 01:43:01;;;;;;;2.23;1.87;;;12.00;99.90;;;;;;5035951;28;20186;-86
2022/06/01 01:45:29;;;;;;;2.70;1.90;;;12.00;99.90;;;;;;5035260;28;20235;-86
2022/06/01 01:47:55;;;;;;;2.17;1.70;;;12.00;99.90;;;;;;5035815;28;20205;-86
2022/06/01 01:50:21;;;;;;;2.33;1.80;;;;;;;;;;5036402;28;20181;-86
2022/06/01 01:52:48;;;;;;;2.27;1.70;;;;;;;;;;5037796;28;20210;-86
2022/06/01 01:55:51;;;;;;;1.70;1.60;;;11.90;99.90;;;;;;5036087;28;20210;-86
2022/06/01 01:58:56;;;;;;;2.07;1.67;;;12.00;99.90;;;;;;5036459;28;20202;-86
2022/06/01 02:01:30;;;;;;;1.47;1.37;;;12.10;99.90;;;;;;5042553;28;20277;-86
2022/06/01 02:04:02;;;;;;;1.63;1.53;;;12.00;99.90;;;;;;5037245;28;20171;-86
2022/06/01 02:06:35;;;;;;;4.73;1.30;;;12.00;99.90;;;;;;5037334;28;20522;-86
2022/06/01 02:09:01;;;;;;;1.90;1.43;;;;;;;;;;5036708;28;20182;-86
2022/06/01 02:14:55;;;;;;;2.17;1.20;;;11.90;99.90;;;;;;4937714;29;20742;-86
2022/06/01 02:17:37;;;;;;;1.53;1.40;;;11.80;99.90;;;;;;4937356;29;20213;-86
2022/06/01 02:20:14;;;;;;;2.00;1.63;;;11.70;99.90;;;;;;5011491;28;20651;-86
2022/06/01 02:22:41;;;;;;;1.47;1.37;;;11.70;99.90;;;;;;5039457;28;20173;-86
2022/06/01 02:25:11;;;;;;;2.13;1.80;;;11.60;99.90;;;;;;5038966;28;20197;-86
2022/06/01 02:27:39;;;;;;;1.60;1.50;;;11.50;99.90;;;;;;5040120;28;20194;-86
2022/06/01 02:30:16;;;;;;;4.70;1.90;;;11.50;99.90;;;;;;5039501;28;20289;-86
2022/06/01 02:32:42;;;;;;;1.90;1.70;;;11.50;99.90;;;;;;5038785;28;20170;-86
2022/06/01 02:35:11;;;;;;;1.80;1.70;;;11.40;99.90;;;;;;5039835;28;20629;-86
2022/06/01 02:37:39;;;;;;;1.50;1.30;;;11.30;99.90;;;;;;5042074;28;20714;-86
2022/06/01 02:40:11;;;;;;;2.20;1.90;;;11.30;99.90;;;;;;5040604;28;20181;-86
2022/06/01 02:42:43;;;;;;;2.37;1.83;;;;;;;;;;5040391;28;20520;-86
2022/06/01 02:45:10;;;;;;;2.47;1.60;;;11.30;99.90;;;;;;5038987;28;20196;-86
2022/06/01 02:47:39;;;;;;;2.80;1.77;;;11.30;99.90;;;;;;5040483;28;20222;-86
2022/06/01 02:50:08;;;;;;;2.77;1.73;;;11.30;99.90;;;;;;5042050;28;20245;-86
2022/06/01 02:52:34;;;;;;;4.00;1.80;;;;;;;;;;5040214;28;20228;-86
2022/06/01 02:55:00;;;;;;;3.83;2.00;;;;;;;;;;5040897;28;20206;-86
2022/06/01 02:57:26;;;;;;;3.63;1.87;;;;;;;;;;5040590;28;20297;-86
2022/06/01 02:59:52;;;;;;;2.20;2.00;;;;;;;;;;5040261;28;20196;-86
2022/06/01 03:02:19;;;;;;;4.43;2.10;;;;;;;;;;5039605;28;20174;-86
2022/06/01 03:04:45;;;;;;;1.93;1.73;;;;;;;;;;5039862;28;20658;-86
2022/06/01 03:07:11;;;;;;;2.27;1.80;;;;;;;;;;5041323;28;20233;-86
2022/06/01 03:09:37;;;;;;;2.00;1.80;;;;;;;;;;5039163;28;20658;-86
2022/06/01 03:12:05;;;;;;;2.87;1.87;;;11.20;99.90;;;;;;5039126;28;20208;-86
2022/06/01 03:14:31;;;;;;;2.17;1.97;;;11.20;99.90;;;;;;5040574;28;20201;-86
2022/06/01 03:16:58;;;;;;;1.83;1.73;;;11.20;99.90;;;;;;5039153;28;20209;-87
2022/06/01 03:19:24;;;;;;;2.83;1.73;;;;;;;;;;5039025;28;20178;-86
2022/06/01 03:21:50;;;;;;;1.90;1.80;;;;;;;;;;5038972;28;20522;-86
2022/06/01 03:24:16;;;;;;;2.67;1.70;;;;;;;;;;5039046;28;20178;-86
2022/06/01 03:26:43;;;;;;;2.23;1.93;;;;;;;;;;5039081;28;20202;-86
2022/06/01 03:29:08;;;;;;;1.83;1.60;;;11.20;99.90;;;;;;5039386;28;20193;-86
2022/06/01 03:31:34;;;;;;;1.80;1.60;;;;;;;;;;5039954;28;20177;-86
2022/06/01 03:34:01;;;;;;;2.60;1.50;;;;;;;;;;5039999;28;20210;-86
2022/06/01 03:36:27;;;;;;;1.67;1.57;;;;;;;;;;5039483;28;20203;-86
2022/06/01 03:38:53;;;;;;;4.53;1.60;;;;;;;;;;5040134;28;20588;-86
2022/06/01 03:41:19;;;;;;;2.80;1.60;;;;;;;;;;5040217;28;20179;-86
2022/06/01 03:46:32;;;;;;;1.70;1.60;;;11.10;99.90;;;;;;5047317;28;20225;-86
2022/06/01 03:48:58;;;;;;;4.13;2.20;;;11.10;99.90;;;;;;5047445;28;20171;-86
2022/06/01 03:51:26;;;;;;;2.97;1.80;;;11.20;99.90;;;;;;5040484;28;20541;-86
2022/06/01 03:53:53;;;;;;;4.13;1.70;;;;;;;;;;5039173;28;20182;-86
2022/06/01 03:56:22;;;;;;;2.57;1.93;;;;;;;;;;5039335;28;20233;-86
2022/06/01 03:58:48;;;;;;;2.00;1.73;;;;;;;;;;5038879;28;20225;-86
2022/06/01 04:01:14;;;;;;;2.30;1.73;;;;;;;;;;5037386;28;20643;-86
2022/06/01 04:03:40;;;;;;;3.67;2.30;;;;;;;;;;5037670;28;20174;-86
2022/06/01 04:06:06;;;;;;;2.33;2.10;;;;;;;;;;5036702;28;20190;-86
2022/06/01 04:08:32;;;;;;;1.83;1.73;;;;;;;;;;5038671;28;20296;-86
2022/06/01 04:10:58;;;;;;;2.77;1.97;;;;;;;;;;5036642;28;20649;-86
2022/06/01 04:13:26;;;;;;;2.20;1.83;;;11.40;99.90;;;;;;5037629;28;20174;-86
2022/06/01 04:15:52;;;;;;;1.83;1.73;;;;;;;;;;5037674;28;20296;-86
2022/06/01 04:18:18;;;;;;;3.50;1.47;;;;;;;;;;5037206;28;20194;-86
2022/06/01 04:20:46;;;;;;;1.93;1.77;;;11.50;99.90;;;;;;5035818;28;20174;-86
2022/06/01 04:23:12;;;;;;;2.70;1.97;;;;;;;;;;5035768;28;20174;-87
2022/06/01 04:25:38;;;;;;;2.93;2.40;;;;;;;;;;5035946;28;20213;-87
2022/06/01 04:28:04;;;;;;;2.20;2.00;;;11.50;99.90;;;;;;5037618;28;20202;-87
2022/06/01 04:30:30;;;;;;;2.73;2.00;;;;;;;;;;5037139;28;20655;-86
2022/06/01 04:32:57;;;;;;;3.70;2.30;;;11.50;99.90;;;;;;5036769;28;20203;-86
2022/06/01 04:35:24;;;;;;;2.93;2.37;;;11.50;99.90;;;;;;5037827;28;20206;-86
2022/06/01 04:37:51;;;;;;;2.70;2.40;;;;;;;;;;5036732;28;20240;-86
2022/06/01 04:40:18;;;;;;;3.20;2.90;;;11.50;99.90;;;;;;5035956;28;20184;-86
2022/06/01 04:42:44;;;;;;;3.30;2.43;;;;;;;;;;5036293;28;20305;-86
2022/06/01 04:45:13;;;;;;;2.90;2.60;;;11.60;99.90;;;;;;5036336;28;20182;-86
2022/06/01 04:47:39;;;;;;;5.20;2.87;;;;;;;;;;5037187;28;20206;-86
2022/06/01 04:50:07;;;;;;;4.17;2.63;;;11.70;99.90;;;;;;5038232;28;20265;-86
2022/06/01 04:52:33;;;;;;;3.20;2.07;;;;;;;;;;5039798;28;20189;-86
2022/06/01 04:55:01;;;;;;;3.87;2.33;;;;;;;;;;5041673;28;20238;-86
2022/06/01 04:57:27;;;;;;;2.97;2.03;;;;;;;;;;5039922;28;20570;-86
2022/06/01 04:59:53;;;;;;;2.90;2.33;;;;;;;;;;5039144;28;20198;-86
2022/06/01 05:02:19;;;;;;;2.27;1.80;;;;;;;;;;5039852;28;20174;-86
2022/06/01 05:04:45;;;;;;;2.67;2.03;;;;;;;;;;5039810;28;20191;-86
2022/06/01 05:07:11;;;;;;;2.13;1.90;;;;;;;;;;5038584;28;20255;-86
2022/06/01 05:09:37;;;;;;;1.80;1.67;;;;;;;;;;5040101;28;20230;-86
2022/06/01 05:12:03;;;;;;;2.30;2.10;;;;;;;;;;5038958;28;20186;-86
2022/06/01 05:14:29;;;;;;;3.23;2.20;;;;;;;;;;5037160;28;20212;-86
2022/06/01 05:16:59;;;;;;;2.80;2.03;;;12.10;99.90;;;;;;5037514;28;20229;-86
2022/06/01 05:19:25;;;;;;;2.07;1.87;;;;;;;;;;5038097;28;20185;-86
2022/06/01 05:21:51;;;;;;;2.90;2.10;;;;;;;;;;5038354;28;20174;-86
2022/06/01 05:24:17;;;;;;;2.43;1.97;;;;;;;;;;5038409;28;20186;-86
2022/06/01 05:26:43;;;;;;;1.97;1.83;;;;;;;;;;5039897;28;20262;-86
2022/06/01 05:29:09;;;;;;;2.50;2.20;;;;;;;;;;5038092;28;20268;-86
2022/06/01 05:31:35;;;;;;;2.33;1.90;;;;;;;;;;5039707;28;20277;-86
2022/06/01 05:34:01;;;;;;;2.80;1.70;;;;;;;;;;5038692;28;20753;-87
2022/06/01 05:36:29;;;;;;;1.70;1.60;;;;;;;;;;5039620;28;20190;-85
2022/06/01 05:38:55;;;;;;;1.93;1.83;;;13.10;99.90;;;;;;5039030;28;20174;-87
2022/06/01 05:41:21;;;;;;;4.60;1.93;;;;;;;;;;5040326;28;20578;-86
2022/06/01 05:43:47;;;;;;;3.13;1.60;;;13.10;99.90;;;;;;5039474;28;20174;-86
2022/06/01 05:46:13;;;;;;;3.97;2.20;;;;;;;;;;5038516;28;20185;-86
2022/06/01 05:48:39;;;;;;;6.10;1.93;;;;;;;;;;5038629;28;20655;-86
2022/06/01 05:51:05;;;;;;;3.10;1.70;;;;;;;;;;5040998;28;20170;-86
2022/06/01 05:53:31;;;;;;;2.30;1.90;;;13.70;99.90;;;;;;5039562;28;20593;-86
2022/06/01 05:55:57;;;;;;;2.53;1.43;;;;;;;;;;5042819;28;20206;-86
2022/06/01 05:58:26;;;;;;;3.93;1.90;;;13.40;99.90;;;;;;5043972;28;20255;-86
2022/06/01 06:00:53;;;;;;;2.30;1.73;;;13.70;99.90;;;;;;5050928;28;20206;-86
2022/06/01 06:03:20;;;;;;;2.80;1.57;;;13.70;99.90;;;;;;5060373;28;20197;-86
2022/06/01 06:08:31;;;;;;;4.93;1.60;;;13.90;99.90;;;;;;5046010;28;20213;-86
2022/06/01 06:10:57;;;;;;;3.30;1.43;;;;;;;;;;5042693;28;20174;-86
2022/06/01 06:13:27;;;;;;;1.67;1.57;;;14.10;99.90;;;;;;5043153;28;20182;-86
2022/06/01 06:15:55;;;;;;;3.10;1.60;;;;;;;;;;5042732;28;20209;-86
2022/06/01 06:18:21;;;;;;;3.10;1.47;;;;;;;;;;5041966;28;20232;-85
2022/06/01 06:20:47;;;;;;;2.87;1.37;;;;;;;;;;5040485;28;20730;-86
2022/06/01 06:23:14;;;;;;;4.10;2.10;;;14.30;99.90;;;;;;5045344;28;20528;-86
2022/06/01 06:25:40;;;;;;;3.40;1.70;;;;;;;;;;5040503;28;20743;-86
2022/06/01 06:28:06;;;;;;;6.83;2.13;;;;;;;;;;5039848;28;20202;-86
2022/06/01 06:30:33;;;;;;;8.07;2.20;;;14.40;99.90;;;;;;5040104;28;20277;-86
2022/06/01 06:32:58;;;;;;;11.00;2.20;;;14.30;99.90;;;;;;5039063;28;20182;-86
2022/06/01 06:35:24;;;;;;;3.90;2.00;;;;;;;;;;5039438;28;20210;-86
2022/06/01 06:37:50;;;;;;;3.60;1.83;;;;;;;;;;5040641;28;20228;-86
2022/06/01 06:40:16;;;;;;;5.13;1.90;;;14.50;99.90;;;;;;5041592;28;20174;-86
2022/06/01 06:42:42;;;;;;;6.30;1.87;;;14.50;99.90;;;;;;5040948;28;20182;-86
2022/06/01 06:45:09;;;;;;;7.07;1.97;;;;;;;;;;5041809;28;20189;-86
2022/06/01 06:47:34;;;;;;;4.80;1.53;;;15.00;99.90;;;;;;5042205;28;20217;-86
2022/06/01 06:50:02;;;;;;;3.83;1.73;;;15.00;99.90;;;;;;5042405;28;20186;-86
2022/06/01 06:52:28;;;;;;;5.50;1.70;;;15.00;99.90;;;;;;5041416;28;20182;-86
2022/06/01 06:54:54;;;;;;;2.53;1.63;;;;;;;;;;5041757;28;20210;-86
2022/06/01 06:57:20;;;;;;;4.27;1.93;;;15.10;99.90;;;;;;5041926;28;20209;-86
2022/06/01 06:59:48;;;;;;;11.07;2.63;;;;;;;;;;5039627;28;20198;-86
2022/06/01 07:02:15;;;;;;;6.60;1.97;;;;;;;;;;5041477;28;20545;-85
2022/06/01 07:04:40;;;;;;;5.40;1.60;;;15.70;99.90;;;;;;5042830;28;20694;-85
2022/06/01 07:07:06;;;;;;;4.40;1.50;;;15.70;99.90;;;;;;5042103;28;20202;-85
2022/06/01 07:09:32;;;;;;;2.87;1.80;;;;;;;;;;5042638;28;20189;-86
2022/06/01 07:11:58;;;;;;;1.70;1.40;;;15.80;99.90;;;;;;5042788;28;20178;-86
2022/06/01 07:14:24;;;;;;;3.80;1.60;;;;;;;;;;5039550;28;20212;-85
2022/06/01 07:16:50;;;;;;;3.93;1.70;;;;;;;;;;5039408;28;20568;-86
2022/06/01 07:19:16;;;;;;;4.33;1.60;;;16.20;99.90;;;;;;5038997;28;20178;-85
2022/06/01 07:21:42;;;;;;;2.83;1.83;;;;;;;;;;5038117;28;20228;-85
2022/06/01 07:24:08;;;;;;;1.80;1.20;;;16.70;99.90;;;;;;5038850;28;20179;-85
2022/06/01 07:26:40;;;;;;;4.20;1.20;;;16.70;99.90;;;;;;5037897;28;20200;-85
2022/06/01 07:29:07;;;;;;;3.60;1.37;;;;;;;;;;5037538;28;20265;-85
2022/06/01 07:31:32;;;;;;;3.27;1.30;;;17.10;99.90;;;;;;5039572;28;20653;-85
2022/06/01 07:33:58;;;;;;;4.33;1.30;;;;;;;;;;5043482;28;20182;-85
2022/06/01 07:36:25;;;;;;;1.93;1.40;;;17.00;99.90;;;;;;5044601;28;20249;-85
2022/06/01 07:44:21;;;;;;;2.73;1.37;;;17.10;99.90;;;;;;5040048;28;20644;-85
2022/06/01 07:46:47;;;;;;;2.80;1.50;;;17.40;99.90;;;;;;5038163;28;20237;-85
2022/06/01 07:49:14;;;;;;;2.97;1.47;;;17.50;99.90;;;;;;5038355;28;20186;-85
2022/06/01 07:51:40;;;;;;;3.57;1.30;;;17.50;99.90;;;;;;5039928;28;20664;-85
2022/06/01 07:54:06;;;;;;;4.80;1.43;;;17.50;99.90;;;;;;5038633;28;20206;-85
2022/06/01 07:56:33;;;;;;;1.97;1.40;;;17.70;99.90;;;;;;5038323;28;20633;-84
2022/06/01 07:58:58;;;;;;;2.67;1.40;;;17.70;99.90;;;;;;5039014;28;20196;-84
2022/06/01 08:01:28;;;;;;;2.07;1.40;;;;;;;;;;5038592;28;20238;-84
2022/06/01 08:03:58;;;;;;;3.27;1.57;;;17.80;99.90;;;;;;5038873;28;20202;-85
2022/06/01 08:06:26;;;;;;;3.03;1.47;;;18.00;99.90;;;;;;5039876;28;20192;-85
2022/06/01 08:08:53;;;;;;;1.93;1.20;;;18.10;99.90;;;;;;5040357;28;20172;-85
2022/06/01 08:11:19;;;;;;;4.10;1.40;;;18.20;99.90;;;;;;5039226;28;20238;-85
2022/06/01 08:13:44;;;;;;;2.23;1.50;;;18.30;99.90;;;;;;5040656;28;20180;-85
2022/06/01 08:16:10;;;;;;;2.87;1.30;;;18.50;99.90;;;;;;5040070;28;20206;-85
2022/06/01 08:18:36;;;;;;;2.17;1.40;;;18.50;99.90;;;;;;5038141;28;20194;-85
2022/06/01 08:21:03;;;;;;;1.57;1.23;;;18.50;99.90;;;;;;5040381;28;20171;-85
2022/06/01 08:23:32;;;;;;;7.53;1.40;;;18.60;99.90;;;;;;5039259;28;20173;-85
2022/06/01 08:25:58;;;;;;;1.30;1.10;;;18.80;99.90;;;;;;5039302;28;20203;-84
2022/06/01 08:28:25;;;;;;;2.63;1.50;;;18.90;99.90;;;;;;5037648;28;20241;-84
2022/06/01 08:30:51;;;;;;;3.30;1.20;;;18.90;99.90;;;;;;5037935;28;20181;-85
2022/06/01 08:33:18;;;;;;;4.83;1.50;;;18.80;99.90;;;;;;5037444;28;20233;-84
2022/06/01 08:35:48;;;;;;;3.37;1.40;;;19.00;99.90;;;;;;5038734;28;20263;-84
2022/06/01 08:38:15;;;;;;;1.87;1.20;;;19.10;99.90;;;;;;5039183;28;20192;-85
2022/06/01 08:40:59;;;;;;;4.00;1.27;;;19.20;99.90;;;;;;5037667;28;20674;-85
2022/06/01 08:43:39;;;;;;;3.30;1.47;;;19.30;99.90;;;;;;5039043;28;20170;-84
2022/06/01 08:46:04;;;;;;;1.50;1.23;;;19.50;99.90;;;;;;5039108;28;20167;-85
2022/06/01 08:48:36;;;;;;;1.53;1.27;;;19.70;99.90;;;;;;5039413;28;20271;-85
2022/06/01 08:51:03;;;;;;;1.73;1.37;;;19.80;99.90;;;;;;5039924;28;20176;-85
2022/06/01 08:53:29;;;;;;;3.53;1.57;;;20.00;99.90;;;;;;5040663;28;20174;-85
2022/06/01 08:56:09;;;;;;;3.47;1.67;;;20.20;99.90;;;;;;5038433;28;20232;-84
2022/06/01 08:58:52;;;;;;;2.63;1.27;;;20.30;99.90;;;;;;5039318;28;20178;-85
2022/06/01 09:01:39;;;;;;;1.33;1.23;;;20.30;99.90;;;;;;5037431;28;20170;-84
2022/06/01 09:04:30;;;;;;;1.43;1.33;;;20.20;99.90;;;;;;5038197;28;20559;-85
2022/06/01 09:07:14;;;;;;;2.60;1.33;;;20.10;99.90;;;;;;5038776;28;20214;-84
2022/06/01 09:10:02;;;;;;;2.80;1.23;;;20.20;99.90;;;;;;5036899;28;20166;-85
2022/06/01 09:12:28;;;;;;;1.77;1.30;;;20.10;99.90;;;;;;5038096;28;20198;-85
2022/06/01 09:14:57;;;;;;;1.60;1.20;;;20.30;99.90;;;;;;5037015;28;20213;-85
2022/06/01 09:17:22;;;;;;;3.63;1.30;;;20.30;99.90;;;;;;5037302;28;20221;-85
2022/06/01 09:22:39;;;;;;;3.77;1.33;;;20.10;99.90;;;;;;5038781;28;20201;-84
2022/06/01 09:25:11;;;;;;;1.80;1.30;;;20.00;98.00;;;;;;5038452;28;20181;-85
2022/06/01 09:27:47;;;;;;;3.00;1.20;;;20.00;99.40;;;;;;5038545;28;20186;-85
2022/06/01 09:30:25;;;;;;;1.20;1.07;;;20.40;99.10;;;;;;5041165;28;20180;-85
2022/06/01 09:33:14;;;;;;;3.73;1.57;;;20.50;99.80;;;;;;5044425;28;20163;-85
2022/06/01 09:35:55;;;;;;;2.53;1.57;;;20.40;99.50;;;;;;5044491;28;20209;-84
2022/06/01 09:38:51;;;;;;;5.60;1.60;;;20.20;97.90;;;;;;5043193;28;20194;-85
2022/06/01 09:41:21;;;;;;;2.13;1.40;;;20.30;98.30;;;;;;5042657;28;20166;-85
2022/06/01 09:43:59;;;;;;;4.50;1.80;;;20.60;99.80;;;;;;5043336;28;20703;-85
2022/06/01 09:46:35;;;;;;;2.30;1.30;;;20.90;99.90;;;;;;5043554;28;20637;-84
2022/06/01 09:49:17;;;;;;;1.80;1.30;;;20.90;98.60;;;;;;5043179;28;20527;-85
2022/06/01 09:51:43;;;;;;;5.13;1.50;;;20.70;97.20;;;;;;5043067;28;20543;-85
2022/06/01 09:54:34;;;;;;;2.00;1.20;;;20.60;97.30;;;;;;5044210;28;20178;-85
2022/06/01 09:57:26;;;;;;;3.00;1.33;;;20.70;97.40;;;;;;5043796;28;20213;-85
2022/06/01 10:08:25;;;;;;;1.63;1.30;;;20.90;98.10;;;;;;5044490;28;20793;-85
2022/06/01 10:11:01;;;;;;;5.17;1.50;;;21.00;99.00;;;;;;5043490;28;20212;-84
2022/06/01 10:13:31;;;;;;;2.57;1.33;;;21.10;99.90;;;;;;5053309;28;20173;-85
2022/06/01 10:16:01;;;;;;;1.30;1.20;;;21.20;99.90;;;;;;5042771;28;20205;-84
2022/06/01 10:18:30;;;;;;;2.93;1.20;;;21.30;97.00;;;;;;5061059;28;20162;-84
2022/06/01 10:21:10;;;;;;;6.87;1.30;;;21.60;95.30;;;;;;5042269;28;20573;-85
2022/06/01 10:23:58;;;;;;;2.27;1.30;;;21.50;95.90;;;;;;5041399;28;20170;-85
2022/06/01 10:26:38;;;;;;;1.57;1.20;;;21.50;94.10;;;;;;5040936;28;20202;-85
2022/06/01 10:29:08;;;;;;;2.30;1.30;;;21.50;94.80;;;;;;5041303;28;20260;-84
2022/06/01 10:31:49;;;;;;;2.50;1.10;;;21.50;95.60;;;;;;5040802;28;20240;-85
2022/06/01 10:34:47;;;;;;;7.03;1.40;;;21.30;92.60;;;;;;5041196;28;20205;-86
2022/06/01 10:37:35;;;;;;;3.80;1.80;;;21.10;94.20;;;;;;5041872;28;20190;-85
2022/06/01 10:40:07;;;;;;;3.93;1.67;;;21.10;93.00;;;;;;5046378;28;20174;-85
2022/06/01 10:45:36;;;;;;;2.60;1.30;;;21.40;95.00;;;;;;5046192;28;20670;-84
2022/06/01 10:48:10;;;;;;;2.57;1.20;;;22.00;92.60;;;;;;5043855;28;20198;-85
2022/06/01 10:50:48;;;;;;;5.83;1.40;;;22.00;92.90;;;;;;5043401;28;20171;-85
2022/06/01 10:53:34;;;;;;;7.40;1.33;;;21.90;95.00;;;;;;5044917;28;20197;-84
2022/06/01 10:56:00;;;;;;;10.20;2.43;;;21.80;92.10;;;;;;5044977;28;20625;-85
2022/06/01 10:58:28;;;;;;;4.90;1.30;;;21.70;96.10;;;;;;5042605;28;20198;-85
2022/06/01 11:01:00;;;;;;;4.20;1.40;;;21.90;93.20;;;;;;5041991;28;20182;-85
2022/06/01 11:03:45;;;;;;;2.20;1.47;;;22.10;95.70;;;;;;5043395;28;21002;-85
2022/06/01 11:06:41;;;;;;;2.10;1.30;;;22.50;98.20;;;;;;4983025;28;20195;-84
2022/06/01 11:09:27;;;;;;;3.30;1.40;;;23.30;95.10;;;;;;5042881;28;20162;-84
2022/06/01 11:11:58;;;;;;;2.40;1.17;;;24.00;94.40;;;;;;5042037;28;20172;-84
2022/06/01 11:14:42;;;;;;;1.53;1.23;;;23.80;95.60;;;;;;5043231;28;20282;-84
2022/06/01 11:17:25;;;;;;;1.57;1.27;;;23.90;96.90;;;;;;5044248;28;20219;-85
2022/06/01 11:20:01;;;;;;;10.30;1.90;;;24.20;92.70;;;;;;5044820;28;20507;-84
2022/06/01 11:22:55;;;;;;;1.33;1.07;;;24.50;95.60;;;;;;5043909;28;20167;-85
2022/06/01 11:25:38;;;;;;;1.90;1.20;;;24.90;91.20;;;;;;5043256;28;20177;-85
2022/06/01 11:28:22;;;;;;;2.67;1.17;;;25.00;92.10;;;;;;5042123;28;20200;-84
2022/06/01 11:30:48;;;;;;;7.53;1.40;;;25.40;92.00;;;;;;5044027;28;20706;-84
2022/06/01 11:33:37;;;;;;;2.70;1.27;;;25.80;92.50;;;;;;5044240;28;20196;-85
2022/06/01 11:36:17;;;;;;;1.77;1.30;;;25.50;85.20;;;;;;5042625;28;20196;-85
2022/06/01 11:38:49;;;;;;;4.17;1.40;;;25.50;85.10;;;;;;5042511;28;20177;-83
2022/06/01 11:41:31;;;;;;;2.33;1.17;;;25.50;90.60;;;;;;5042760;28;20169;-84
2022/06/01 11:44:23;;;;;;;1.80;1.03;;;25.50;90.00;;;;;;5042438;28;20176;-84
2022/06/01 11:47:14;;;;;;;3.00;1.20;;;25.40;87.80;;;;;;5043256;28;20219;-84
2022/06/01 11:49:42;;;;;;;3.80;1.30;;;25.20;86.30;;;;;;5040746;28;20582;-83
2022/06/01 11:52:23;;;;;;;2.83;1.30;;;24.60;86.70;;;;;;5042447;28;20234;-84
2022/06/01 11:55:10;;;;;;;1.77;1.43;;;24.40;86.70;;;;;;5042006;28;20207;-84
2022/06/01 11:57:43;;;;;;;3.60;1.63;;;23.90;91.40;;;;;;5043621;28;20198;-84
2022/06/01 12:00:30;;;;;;;2.30;1.30;;;23.90;90.20;;;;;;5044617;28;20183;-84
2022/06/01 12:03:00;;;;;;;4.13;1.53;;;23.70;87.80;;;;;;5044426;28;20183;-84
2022/06/01 12:05:33;;;;;;;2.43;1.50;;;23.50;83.80;;;;;;5045064;28;20179;-84
2022/06/01 12:08:21;;;;;;;3.30;1.73;;;23.70;89.70;;;;;;5052966;28;20180;-84
2022/06/01 12:10:59;;;;;;;4.50;1.40;;;23.90;90.80;;;;;;5053353;28;20262;-84
2022/06/01 12:13:28;;;;;;;2.53;1.30;;;23.60;88.20;;;;;;5044404;28;20224;-84
2022/06/01 12:16:20;;;;;;;1.53;1.23;;;23.20;85.70;;;;;;5041698;28;20215;-84
2022/06/01 12:19:11;;;;;;;1.23;1.07;;;23.10;88.20;;;;;;5042769;28;20204;-84
2022/06/01 12:21:43;;;;;;;2.07;1.60;;;23.20;91.90;;;;;;5043367;28;20166;-84
2022/06/01 12:30:04;;;;;;;2.33;1.50;;;23.40;92.00;;;;;;5041405;28;20205;-84
2022/06/01 12:32:50;;;;;;;2.70;1.60;;;23.80;87.50;;;;;;5042523;28;20159;-84
2022/06/01 12:35:19;;;;;;;1.10;1.00;;;23.90;87.00;;;;;;5040198;28;20203;-84
2022/06/01 12:37:50;;;;;;;1.57;1.00;;;23.70;86.10;;;;;;5040299;28;20195;-84
2022/06/01 12:40:21;;;;;;;2.17;1.83;;;23.70;86.80;;;;;;5040190;28;20652;-84
2022/06/01 12:43:14;;;;;;;4.00;1.50;;;23.80;87.40;;;;;;5041354;28;20636;-84
2022/06/01 12:45:42;;;;;;;1.23;1.13;;;23.40;89.80;;;;;;5037117;28;20529;-84
2022/06/01 12:48:19;;;;;;;1.70;1.30;;;22.70;86.80;;;;;;5040823;28;20202;-83
2022/06/01 12:51:04;;;;;;;2.03;1.10;;;22.20;84.90;;;;;;5040909;28;20209;-83
2022/06/01 12:53:43;;;;;;;3.07;1.50;;;21.80;86.30;;;;;;5043310;28;20175;-84
2022/06/01 12:56:13;;;;;;;3.50;1.57;;;21.30;87.70;;;;;;5042760;28;20208;-84
2022/06/01 12:58:43;;;;;;;3.00;1.40;;;21.20;88.80;;;;;;5043243;28;20186;-84
2022/06/01 13:01:10;;;;;;;4.43;1.40;;;21.00;87.40;;;;;;5044431;28;20181;-84
2022/06/01 13:03:43;;;;;;;2.87;1.50;;;20.90;90.10;;;;;;5046101;28;20713;-84
2022/06/01 13:06:12;;;;;;;2.00;1.33;;;20.80;88.80;;;;;;5045235;28;20690;-84
2022/06/01 13:08:39;;;;;;;4.07;1.27;;;20.80;89.40;;;;;;5045216;28;20182;-84
2022/06/01 13:11:15;;;;;;;2.93;1.53;;;20.70;90.60;;;;;;5044022;28;20186;-84
2022/06/01 13:13:42;;;;;;;1.87;1.27;;;20.70;91.20;;;;;;5045030;28;20197;-84
2022/06/01 13:16:08;;;;;;;2.83;1.60;;;20.70;90.60;;;;;;5044964;28;20206;-82
2022/06/01 13:18:38;;;;;;;2.60;1.50;;;20.80;90.50;;;;;;5041589;28;20197;-84
2022/06/01 13:21:16;;;;;;;3.03;1.43;;;20.80;90.70;;;;;;5040930;28;20694;-83
2022/06/01 13:23:53;;;;;;;3.93;1.50;;;20.80;91.70;;;;;;5041227;28;20170;-83
2022/06/01 13:26:46;;;;;;;2.03;1.40;;;20.60;91.80;;;;;;5038197;28;20231;-83
2022/06/01 13:29:31;;;;;;;1.53;1.40;;;20.60;92.30;;;;;;5034027;28;20263;-84
2022/06/01 13:32:01;;;;;;;3.00;1.40;;;20.50;91.50;;;;;;5034780;28;20169;-83
2022/06/01 13:34:51;;;;;;;2.80;1.70;;;20.30;92.00;;;;;;5034546;28;20206;-83
2022/06/01 13:37:19;;;;;;;2.20;1.50;;;20.20;91.30;;;;;;5035740;28;20194;-83
2022/06/01 13:40:21;;;;;;;2.17;1.40;;;20.10;91.30;;;;;;5036959;28;20174;-83
2022/06/01 13:43:00;;;;;;;4.23;1.60;;;20.00;91.90;;;;;;5038291;28;20159;-83
2022/06/01 13:45:40;;;;;;;2.23;1.60;;;20.00;92.00;;;;;;5038721;28;20182;-83
2022/06/01 13:48:14;;;;;;;3.10;1.43;;;19.90;91.80;;;;;;5038245;28;20194;-83
2022/06/01 13:50:43;;;;;;;2.37;1.50;;;19.90;94.10;;;;;;5037096;28;20637;-83
2022/06/01 13:53:23;;;;;;;5.07;1.70;;;19.80;93.50;;;;;;5038759;28;20223;-84
2022/06/01 13:55:57;;;;;;;2.83;1.50;;;19.80;92.20;;;;;;5037956;28;20210;-84
2022/06/01 13:59:01;;;;;;;1.70;1.50;;;19.70;92.40;;;;;;5039215;28;20222;-84
2022/06/01 14:01:53;;;;;;;3.67;1.63;;;19.50;92.30;;;;;;5039742;28;20689;-83
2022/06/01 14:04:41;;;;;;;2.43;1.63;;;19.50;93.40;;;;;;5026546;28;20213;-83
2022/06/01 14:07:13;;;;;;;2.60;1.67;;;19.30;92.70;;;;;;5038073;28;20668;-84
2022/06/01 14:10:00;;;;;;;4.07;1.70;;;19.30;93.10;;;;;;5037852;28;20182;-83
2022/06/01 14:12:27;;;;;;;6.50;1.50;;;19.10;93.50;;;;;;5038216;28;20181;-84
2022/06/01 14:14:55;;;;;;;2.60;1.40;;;19.00;93.20;;;;;;5037461;28;20206;-84